Biedriem

VSK Noskrien twitter
VSK Noskrien Facebook profils

Polar M400 HR
Ūdensizturīgs GPS pulsometrs ikdienas treniņiem un sportiskiem sasniegumiem.
EUR 189.00

Noskrietais


Pēdējās nedēļas skrējieni grupai
Datums Notikums Skrējējs Km Laiks Pulss Am min/km km/h Apavi
16/01/19 Trešdienas rīta sniega prieki! bantiite 7.16 48:50 06:49 8.80 ir
16/01/19 kross pa netīrītām ielām tempā guncha 16.20 1:15:20 146 04:39 12.90 ir
16/01/19 Manēža Chuncha 8.00 47:44 05:58 10.06 ir
16/01/19 Intervāli, +3° Alarion 4.99 45:09 139 09:02 6.63 ir
16/01/19 trešdieniņš normundiņš 6.63 48:45 157 17 07:21 8.16 ir
16/01/19 Rīta Skrējiens Swimrunner 6.26 46:14 130 8 07:23 8.12 ir
16/01/19 Pa kupenām eddyboyz 6.90 46:40 150 06:45 8.87 ir
16/01/19 Rīta skrējiens. dainelis 6.00 32:44 132 05:27 11.00 ir
16/01/19 Skrējiens Ila_Kantī 0.35 02:33 07:17 8.24
16/01/19 Skrējiens raraitis 15.01 1:09:21 04:37 12.99 ir
16/01/19 rr7 edGars 5.00 32:39 06:31 9.19 ir
16/01/19 skriešana dadadzis 4.13 35:01 142 08:28 7.08 ir
16/01/19 Skrējiens zandarts 7.24 51:00 07:02 8.52 ir
16/01/19 Skrējiens vitjka 5.19 29:34 05:41 10.53 ir
16/01/19 V Trakais 7.51 34:32 04:35 13.05 ir
16/01/19 Kad cita laika nav Grāmatvedis 9.20 1:00:57 225 06:37 9.06 ir
16/01/19 Komandējuma rīts ievajansone 11.43 1:22:05 144 175 07:10 8.35 ir
16/01/19 rita pikols 15.07 1:59:04 120 25 07:54 7.59 ir
16/01/19 sniegs līdz ceļiem Sanča_Ro 4.00 31:48 141 07:57 7.55 ir
16/01/19 Sniegs līdz potītēm un skrienošas meitenes Jānis_v 7.40 41:13 05:34 10.77 ir
16/01/19 Rīts pa ļoti piesnigušām ietvēm OreMan 13.00 1:09:16 05:19 11.26 ir
16/01/19 # Stunda 3.49 19:09 05:29 10.93 ir
16/01/19 Te ir darbs! Raibacainais Ezītis 11.68 1:06:20 05:40 10.56 ir
16/01/19 tipu tapu GintsK 10.01 52:19 05:13 11.48 ir
16/01/19 Rīta Pulsa līdz 135 Freelancer 7.44 41:30 134 40 05:34 10.76 ir
16/01/19 Katram rokās lāpstu. (Pirmais no visiem! 06:28) Didzo 7.27 39:25 05:25 11.07 ir
16/01/19 Agrais ,grūtākais kupenu skrējiens. voļda 14.13 1:14:41 144 29 05:17 11.35 ir
15/01/19 Skrējiens kominieks 5.37 42:27 07:54 7.59 ir
15/01/19 Dobeles šoseja sniega putrā Ina 11.11 1:09:50 158 13 06:17 9.55 ir
15/01/19 V Trakais 9.60 43:31 04:31 13.24 ir
15/01/19 Cēsis - Priekuļi - Cēsis ArnisŠ 11.96 1:09:51 05:50 10.27
15/01/19 Otrdienas vakars Ginchaa 13.13 1:21:29 125 06:12 9.67
15/01/19 NiL trololo 12.18 1:16:17 06:15 9.58 ir
15/01/19 Vakara skrējiens JanisSkrien 13.00 1:10:40 150 05:26 11.04 ir
15/01/19 . ush 8.38 40:05 141 39 04:46 12.54 ir
15/01/19 Nē, ekstrēms zefīra kurjerpasts bija šodien. Putenis, plīsieni. Lielkuilis 16.56 1:26:22 05:12 11.50 ir
15/01/19 Koptreniņš "Nāc izvējoties Liepājā" Ginc 10.40 1:04:30 9 06:12 9.67 ir
15/01/19 Skrējiens xorix 8.01 44:18 05:31 10.85 ir
15/01/19 Skrējiens Mr.Linde 8.70 56:28 06:29 9.24 ir
15/01/19 Skrējiens Janxxx 5.71 40:01 07:00 8.56 ir
15/01/19 Skrējiens Andrejs V. 10.03 52:41 05:15 11.42 ir
15/01/19 Skrējiens SandisC 6.78 38:13 05:38 10.64 ir
15/01/19 Skrējiens ruducis 11.05 1:06:29 06:00 9.97 ir
15/01/19 Skrējiens drafts 10.27 1:00:57 05:56 10.11 ir
15/01/19 Skrējiens Janis_O 14.02 1:15:34 05:23 11.13 ir
15/01/19 Skrējiens NITRO 6.21 35:37 05:44 10.46 ir
15/01/19 sprinti uz lentas 1minx1min Emons 3.30 19:00 05:45 10.42 ir
15/01/19 Skrējiens Casperr 10.56 52:26 04:57 12.08 ir
15/01/19 (80.0) veloceliņš Kampars 11.80 56:46 04:48 12.47
15/01/19 Skrējiens kmamedova 8.25 53:21 06:28 9.28
15/01/19 Skrējiens cheburs 5.47 37:09 06:47 8.83 ir
15/01/19 Skrējiens Jurgis_Klav 6.00 37:48 06:18 9.52
15/01/19 Skrējiens annele 7.27 47:01 06:28 9.28 ir
15/01/19 Skrējiens experc 8.64 47:06 05:27 11.01 ir
15/01/19 Skrējiens Natthe 10.00 1:01:13 06:07 9.80 ir
15/01/19 Skrējiens Valdis.M 5.08 22:02 04:20 13.83 ir
15/01/19 Skrējiens Valdis.M 1.48 06:57 04:41 12.78 ir
15/01/19 Skrējiens rmamedov 9.39 53:21 05:40 10.56 ir
15/01/19 Skrējiens Dzintars 12.02 1:01:37 05:07 11.70 ir
15/01/19 LRM 13.1. (043) MBirums 7.15 40:07 150 31 05:36 10.69 ir
15/01/19 Skrējiens Lubyz 21.20 2:00:55 05:42 10.52 ir
15/01/19 Skrējiens Oscilis 7.18 40:55 05:41 10.53 ir
15/01/19 Skrējiens zetto 7.38 38:24 05:12 11.53 ir
15/01/19 Skrējiens vaicis 9.19 52:07 05:40 10.58
15/01/19 KT ar Raimondu un Sandiju ātrāk edGars 10.20 57:15 05:36 10.69 ir
15/01/19 Šodien jau sāka netīrītie ceļi ar sniegu izbesīt Black Canary 13.00 1:28:15 06:47 8.84
15/01/19 2019 zem 2:59:00 laacis1981 12.82 1:15:06 05:51 10.24 ir
15/01/19 Skrējiens chunka 12.30 1:01:41 05:00 11.96 ir
15/01/19 R maffija 8.00 48:02 06:00 9.99 ir
15/01/19 Pēctraumas recovery skrējiens. Maru 3.00 16:26 134 05:28 10.95 ir
15/01/19 cool down - treadmill puuce 2.51 14:43 05:51 10.23 ir
15/01/19 warm up - treadmill puuce 2.85 17:13 06:02 9.93 ir
15/01/19 6x(1km aer/1km faster) villijs78 13.13 1:08:59 155 05:15 11.42 ir
15/01/19 5 x 20s.ātri. Uldzha 4.30 27:08 06:18 9.51 ir
15/01/19 VS 60' seismologs 10.39 58:45 132 8 05:39 10.61 ir
15/01/19 vakars tumšs Rucavs 11.58 1:19:18 06:50 8.76 ir
15/01/19 Dailas treniņā. Iesild.atsild.+ barjeras,pilbumbas x6 piegājieni. Gīča 2.00 15:46 119 07:53 7.61 ir
15/01/19 I've been dreaming 'bout us, working hard and saving it up Cukuriņš 17.23 1:33:23 05:25 11.07 ir
15/01/19 Mežaparks. sigita 12.01 1:10:35 139 05:52 10.21 ir
15/01/19 Otrdienis _Edgars_ 13.15 1:10:12 05:20 11.24 ir
15/01/19 intervāli bro 12.06 1:16:57 145 06:22 9.40 ir
15/01/19 ilguciems čirka 6.54 48:27 07:24 8.10
15/01/19 Lēns skrējiens pēc darba Jolis 18.01 1:39:12 144 05:30 10.89
15/01/19 Otrdien Biruta 6.01 40:37 06:45 8.88 ir
15/01/19 Skrejiens VP13 10.73 51:29 04:47 12.51 ir
15/01/19 Skrējiens Swimrunner 4.50 31:22 127 9 06:58 8.61 ir
15/01/19 11. Didzis 9.08 1:07:15 07:24 8.10 ir
15/01/19 S19.56 Alvis D 16.09 1:14:25 04:37 12.97 ir
15/01/19 Pulsa - Recovery Līdz 135 Freelancer 12.46 1:10:50 135 49 05:41 10.55 ir
15/01/19 ] 달 산책 cumulus 25.18 2:17:48 177 05:28 10.96 ir
15/01/19 Skrējiens Lauris 8.07 1:00:34 138 07:30 7.99 ir
15/01/19 Baigā putra ivitis 6.40 41:32 06:29 9.25
15/01/19 4. ilvarito 7.36 38:25 05:13 11.50 ir
15/01/19 Skrejceliņš pirms izturības treniņa Špicka 2.00 12:00 06:00 10.00 ir
15/01/19 Otrdienas koptreniņš KarlisBumans 12.00 1:13:41 129 06:08 9.77 ir
15/01/19 Vakara +1 ZR 8/13 pa sniedziņu, satieku Ilzi Aldis B 7.76 52:10 153 52 06:43 8.93 ir
15/01/19 Pasts Raibacainais Ezītis 3.15 17:06 05:25 11.05 ir
15/01/19 iBode Raibacainais Ezītis 5.50 29:09 05:18 11.32 ir
15/01/19 Pa parku pēc plāna Alice 7.94 50:00 159 06:17 9.53 ir
15/01/19 pa sniegu vien Ilze1409 13.60
15/01/19 Krastmala bredato 12.10 1:03:38 153 29 05:15 11.41 ir
15/01/19 You jumped into your Gemini I jumped into mine strazdiņš 4.72 41:00 08:41 6.91 ir
15/01/19 Skrējiens Chuncha 10.00 57:09 05:42 10.50 ir
15/01/19 rajona aplītis ar 1km x 3 intervāliem Girtss 5.63 43:41 141 07:45 7.73 ir
15/01/19 vakars guncha 9.71 48:32 161 04:59 12.00 ir
15/01/19 Vakars ar Kasparu OreMan 11.00 1:00:51 05:31 10.85 ir
15/01/19 9. Brainārs 11.93 1:00:01 146 05:01 11.93 ir
15/01/19 pa sniegu parkā Rainers 5.30 32:05 06:03 9.91 ir
15/01/19 Skrējiens Prestons 8.62 50:01 140 28 05:48 10.34 ir
15/01/19 skrējiens Kahn 4.70 32:36 06:56 8.65 ir
15/01/19 Asfalts Dzo 18.00 1:25:37 04:45 12.61 ir
15/01/19 No darba ilZZuks 12.00 1:12:00 06:00 10.00 ir
15/01/19 maziņais uz darbu stjopachio 5.02 26:08 124 05:12 11.53 ir
15/01/19 8 km (0°C; ZR 5 m/s) atisx 8.00 49:00 154 24 06:07 9.80 ir
15/01/19 Treniņš andis.deze 10.17 45:37 160 20 04:29 13.38 ir
15/01/19 Ap Grīziņkalnu Kuks 6.30 38:00 134 06:01 9.95 ir
15/01/19 Saskaņā ar programmu  Heņča 5.60 35:00 06:15 9.60 ir
15/01/19 Skrējiens 4.00 24:51 06:12 9.66 ir
15/01/19 pēcdarba izskrējiens Dina 6.33 42:33 156 06:43 8.93 ir
15/01/19 Skrējiens MartinsF 4.84 30:09 22 06:13 9.63 ir
15/01/19 Apkārt Lidostai Voldžiks 22.33 2:13:00 129 05:57 10.07 ir
15/01/19 Tukums sergejs1 9.45 1:00:01 06:21 9.45 ir
15/01/19 Ar ratiem pa sniegu nois 7.71 50:42 06:34 9.12 ir
15/01/19 Skrejiens M.Po 11.10 59:01 133 05:19 11.28 ir
15/01/19 Once in a Plymouth :) vetrasputns 8.00 50:21 145 70 06:17 9.53 ir
15/01/19 Otrdienas mierīgais Rīgā noris 12.01 57:09 20 04:45 12.61 ir
15/01/19 6 Guntis.Balodis 25.24 2:42:50 06:27 9.30
15/01/19 Skrējiens biciic 10.15 55:14 05:26 11.03 ir
15/01/19 Uz Mārupes pusi. Hiēna 11.11 1:07:25 06:04 9.89 ir
15/01/19 14.00.Garais pa šoseju MAKRO 28.10 2:09:37 149 04:36 13.01 ir
15/01/19 Saldū. 10km,kur 8,9km 100m ātri,100m lēni (pret puteni :-(). Gīča 10.00 55:18 136 05:31 10.85 ir
15/01/19 Pa gaismu uldis15 18.00 1:26:12 04:47 12.53 ir
15/01/19 saule silda neirula 9.94 1:14:18 151 07:28 8.03 ir
15/01/19 Upe (96,2) Aivars 11.45 1:27:14 123 9 07:37 7.88 ir
15/01/19 ar Čarliku Rozens 12.04 1:14:14 124 06:09 9.73 ir
15/01/19 Atgriešanās skrējiens Kristiāns 9.99 47:41 04:46 12.57 ir
15/01/19 Treniņš Dainis 12.20 1:21:49 06:42 8.95 ir
15/01/19 13:30 Grīziņkalns(5x100m+5km tempā=22m:35s/-3 snieg sniegs un ļoti slidens) GačusSkrunda 12.00 59:42 30 04:58 12.06 ir
15/01/19 skrējiens Gatis Krūze 3.00 17:37 05:52 10.22
15/01/19 skrējiens suns 12.00 1:11:09 05:55 10.12 ir
15/01/19 #7 rati Jekaterina 7.03 52:02 38 07:24 8.11 ir
15/01/19 s/c andris13 10.00 43:27 04:20 13.81 ir
15/01/19 Līdz jūrai. Putenis un saule. - 0. bowskis 7.70 47:10 06:07 9.80 ir
15/01/19 Skrējiens uz darbu Helliza 8.20 52:32 06:24 9.37 ir
15/01/19 Uz Linezeru ielīst āliņģī un atpakaļ uz auto OreMan 1.15 05:53 05:06 11.73 ir
15/01/19 Skrējiens. Pirmais pēc Pneimonijas :))) bunbinja 3.23 23:00 139 07:07 8.43 ir
15/01/19 skrejceliņš pusdienlaikā Diddi 6.00 40:27 06:44 8.90 ir
15/01/19 skriešanas imitācija guncha 13.33 1:06:32 157 04:59 12.02 ir
15/01/19 92,5 Ønske 8.56 1:00:00 07:00 8.56 ir
15/01/19 Viesturu meži noskrietsevi 14.14 1:22:41 05:50 10.26 ir
15/01/19 Rīts ar Alīnu OreMan 3.00 16:37 05:32 10.83 ir
15/01/19 Skrējiens. garaissss 10.45 1:01:08 145 05:51 10.26 ir
15/01/19 treadmill running normundiņš 6.05 40:01 160 06:36 9.07
15/01/19 Skrējiens uzzy 6.94 47:04 06:46 8.85 ir
15/01/19 Skrējiens zandarts 9.26 1:01:51 138 30 06:40 8.98 ir
15/01/19 Skrējiens johaidi 7.38 45:04 06:06 9.83 ir
15/01/19 Skrējiens raraitis 18.03 1:33:44 05:11 11.54 ir
15/01/19 Skrējiens Ila_Kantī 4.19 30:26 07:15 8.26
15/01/19 Skrējiens vitjka 5.19 30:53 05:57 10.08 ir
15/01/19 Skrējiens oskarsdamb 10.19 59:02 142 05:47 10.36 ir
15/01/19 Skrējiens anikka 5.04 32:01 06:21 9.45 ir
15/01/19 Skrējiens Jaudinieks 13.00 1:22:53 06:22 9.41 ir
15/01/19 rr7 edGars 5.01 31:50 06:21 9.44 ir
15/01/19 treadmill DServ 11.40 1:00:02 05:15 11.39 ir
15/01/19 Parastais treniņš Andris__Z 3.04 22:28 133 07:23 8.12 ir
15/01/19 Crowded town or silent bed, pick a place to rest your head Cukuriņš 7.14 37:47 05:17 11.34 ir
15/01/19 Skaistā, skaistā Pārdaugava skai-tlot-ajs 13.00 1:20:52 06:13 9.65 ir
15/01/19 Labrīt, otrdienā! SelfijuPavēlniece 8.00 54:05 153 06:45 8.88 ir
15/01/19 Te ir darbs! Raibacainais Ezītis 11.76 1:04:07 05:27 11.00 ir
15/01/19 Supervaroņi Grīziņā Ina 13.90 1:40:00 153 200 07:11 8.34 ir
15/01/19 juhū, beidzot sniega šķūrētāji guļ Sanča_Ro 6.10 43:58 133 07:12 8.32 ir
15/01/19 Running Aivysuperman 10.05 1:00:19 146 06:00 10.00 ir
15/01/19 Rīts parastais pa 2...3 cm svaiga sniega Jānis_v 7.40 40:12 05:25 11.04 ir
15/01/19 #53 SL1. Lēnais, garais, mierīgais agri, agri no rīta. Auksti! +16m, -6C, 05:19 antra 14.03 1:32:48 145 16 06:36 9.07 ir
15/01/19 rita pikols 15.17 1:57:01 122 76 07:42 7.78 ir
15/01/19 Visu slikto prom. (Pirmais no visiem! 06:23) Didzo 5.08 31:05 06:07 9.81 ir
14/01/19 V Trakais 5.36 27:09 05:03 11.85 ir
14/01/19 Atpakaļ ziemā a-anna 9.00 1:05:00 07:13 8.31 ir
14/01/19 # Stunda 2.93 16:00 05:27 10.99 ir
14/01/19 Skrējiens Janis_O 4.08 21:08 05:10 11.58 ir
14/01/19 14.01.2019 Santa.birgele 7.05 44:40 06:20 9.47
14/01/19 Vēls vakars pilsētā englishteacher 10.00 55:38 05:33 10.78 ir
14/01/19 Skrējiens uz darbu Helliza 6.04 41:34 06:52 8.72 ir
14/01/19 devitnieks Aleks Kor 9.00 52:48 143 05:52 10.23 ir
14/01/19 12 km Agate_K 12.01 1:09:39 152 05:47 10.35 ir
14/01/19 Skrējiens uzzy 7.02 39:57 05:41 10.54 ir
14/01/19 Pirmdiena Black Canary 7.00 46:50 06:41 8.97
14/01/19 skrējiens Gatis Krūze 6.00 34:55 05:49 10.31 ir
14/01/19 skrējiens Gatis Krūze 2.59 14:57 05:46 10.39
14/01/19 Give me a minute to hold my girl Cukuriņš 14.23 1:45:07 07:23 8.12 ir
14/01/19 Vakara skrējiens JanisSkrien 14.00 1:15:46 155 05:24 11.09 ir
14/01/19 Skrējiens ezisskrien 14.45 1:20:22 05:33 10.79 ir
14/01/19 Skrējiens LEICHA 8.24 43:30 05:16 11.37
14/01/19 Skrējiens Valdis.M 5.06 23:52 04:43 12.72 ir
14/01/19 Skrējiens Valdis.M 1.48 07:17 04:55 12.19 ir
14/01/19 Skrējiens Valdis.M 7.25 31:53 04:23 13.64 ir
14/01/19 Skrējiens mriden 12.01 1:07:21 05:36 10.70 ir
14/01/19 Skrējiens vaicis 10.24 1:08:57 06:44 8.91
14/01/19 Skrējiens Oscilis 11.51 1:08:19 05:56 10.11 ir
14/01/19 Skrējiens anikka 7.30 47:58 06:34 9.13 ir
14/01/19 Skrējiens Andrejs V. 12.27 1:04:23 05:14 11.43 ir
14/01/19 Skrējiens Ila_Kantī 10.01 1:02:01 06:11 9.68
14/01/19 Skrējiens xorix 4.08 22:23 05:29 10.94 ir
14/01/19 Skrējiens drafts 14.77 1:25:03 05:45 10.42 ir
14/01/19 Skrējiens Martins.Krumins 10.17 50:12 04:56 12.16 ir
14/01/19 Skrējiens Elhana 4.06 29:36 07:17 8.23 ir
14/01/19 Skrējiens Casperr 6.73 34:03 05:03 11.86 ir
14/01/19 Skrējiens Pokainis 5.61 35:00 06:14 9.62 ir
14/01/19 Ekstrēms zefīra kurjerpasts Lielkuilis 16.50 1:18:10 04:44 12.67 ir
14/01/19 Skrējiens valtijs 4.48 28:58 06:27 9.28
14/01/19 Pa asfaltētām ielām Pičuks Dz 3.20 23:28 118 07:20 8.18
14/01/19 Intervāli 5x600m caur 400m LOC manēžā. KarlisBumans 11.00 1:03:40 139 05:47 10.37 ir
14/01/19 Gatavošanās RobertsR 6.02 31:59 164 05:18 11.29 ir
14/01/19 Hello, Monday! AngelLika21 10.36 1:00:00 05:47 10.36 ir
14/01/19 21.00.Lēnais MAKRO 14.10 1:14:59 124 05:19 11.28 ir
14/01/19 Supervaroņi Grīziņkalnā ruducis 9.10 1:34:37 204 10:23 5.77 ir
14/01/19 Ledus un sniega putra Cassandra 10.20 1:00:26 05:55 10.13 ir
14/01/19 Uz skrejceliņa pirms Body Bike treniņa Ance K 3.00 20:00 06:40 9.00 ir
14/01/19 mierīgais no darba stjopachio 9.29 49:03 119 05:16 11.36 ir
14/01/19 pirmais Zemmijs 8.00
14/01/19 #13.13.1.- JurBer 5.53 40:04 135 07:14 8.28 ir
14/01/19 celins jurcha 10.03 57:46 05:45 10.42
14/01/19 Skrejiens VP13 5.63 28:16 05:01 11.95
14/01/19 3. ilvarito 7.13 38:09 05:21 11.21 ir
14/01/19 Supervaroņi Grīziņkalnā Raķete 9.52 1:02:30 151 175 06:33 9.14 ir
14/01/19 Pirmdienis _Edgars_ 8.10 46:55 05:47 10.36 ir
14/01/19 S19.55 [Supervaroņi] Alvis D 14.30 1:26:36 06:03 9.91 ir
14/01/19 Asfalts Dzo 21.60 1:44:11 04:49 12.44 ir
14/01/19 Skrējiens pēc darba Jolis 15.10 1:18:43 05:12 11.51
14/01/19 8. SV H218 Brainārs 8.90 1:16:34 146 218 08:36 6.97 ir
14/01/19 Pa Jūrmalu Samiks 9.00 51:28 05:43 10.49
14/01/19 vakars tumšs Rucavs 4.54 20:45 04:34 13.13 ir
14/01/19 balozi bredato 11.16 1:02:13 149 39 05:34 10.76 ir
14/01/19 Treniņš Rebelmusic 9.00 58:00 160 06:26 9.31
14/01/19 Līdz Dampeļiem papeldēt un atpakaļ. -1 bowskis 11.00 1:05:10 05:55 10.13 ir
14/01/19 skrējiens Kahn 6.50 43:33 06:42 8.96 ir
14/01/19 7x200 villijs78 10.02 56:53 153 05:40 10.57 ir
14/01/19 Vakara skrējiens. dainelis 8.00 43:18 149 05:24 11.09 ir
14/01/19 10. Didzis 7.02 52:50 07:31 7.97 ir
14/01/19 sava prieka pēc... puteņoja -1C Špicka 16.81 1:38:16 05:50 10.26 ir
14/01/19 VS, 3x(300mĀ+700mL), sniegs, vējš 6-12 m/s, -0.5C sola.scriptura 6.02 53:02 147 08:48 6.81 ir
14/01/19 93.9 Ønske 6.17 ir
14/01/19 Skrējiens Prestons 9.33 55:01 139 31 05:53 10.18 ir
14/01/19 8k pa 4:52 edGars 9.79 50:41 05:10 11.59 ir
14/01/19 Turp un atpakaļ Guna 22.07 2:13:48 06:03 9.90 ir
14/01/19 Skrējiens Chuncha 8.00 46:48 05:51 10.26 ir
14/01/19 Putenī un šļurā Inta Amoliņa 7.31 54:03 07:23 8.11 ir
14/01/19 s/c andris13 13.45 1:00:00 04:27 13.45 ir
14/01/19 Skrējiens biciic 10.14 59:21 105 05:51 10.25 ir
14/01/19 1*Ziepčiks Rozens 11.75 57:05 162 04:51 12.35 ir
14/01/19 uz mājām (ar mugursomu) kaķis 6.18 39:31 150 22 06:23 9.38 ir
14/01/19 Treniņš andis.deze 12.66 57:09 165 35 04:30 13.29 ir
14/01/19 trenins gintsp 11.89 1:15:06 06:18 9.50 ir
14/01/19 skrējiens pelde skrējiens suns 10.00 1:00:56 06:05 9.85 ir
14/01/19 13.00.Fitnesa centrā,fartleks ar gariem posmiem MAKRO 12.00 52:33 156 60 04:22 13.70 ir
14/01/19 Treniņš: Fizikas institūts Dainis 13.11 1:30:00 06:51 8.74 ir
14/01/19 18km viegls tempa skrējiens + iesildīšanās un atsildīšanās uldis15 21.90 1:30:12 04:07 14.57 ir
14/01/19 Upe (96,0) Aivars 8.54 1:08:11 119 6 07:59 7.52 ir
14/01/19 Skrējiens Rīga #3 KVerdens 8.00 48:30 153 7 06:03 9.90 ir
14/01/19 Ar ratiem pa sniega putru nois 10.26 1:07:13 06:33 9.16 ir
14/01/19 Sezonas atklāšana Antramons 4.16 27:40 49 06:39 9.02 ir
14/01/19 kalni (Grīziņkalns) guncha 20.65 1:43:15 173 05:00 12.00 ir
14/01/19 Reaktors eddyboyz 10.00 50:45 163 05:04 11.82 ir
14/01/19 uz darbu kaķis 6.13 41:20 146 85 06:44 8.90 ir
14/01/19 Skrējiens, +1° Alarion 5.99 1:00:09 136 10:02 5.98 ir
14/01/19 Pirmdienas agrā stundiņa 6.30 Ginchaa 9.72 1:00:10 121 06:11 9.69
14/01/19 Skrējiens raraitis 13.15 1:11:09 05:24 11.09 ir
14/01/19 Skrējiens vitjka 6.44 36:11 05:37 10.68 ir
14/01/19 Skrējiens frišais 6.82 38:45 05:40 10.56 ir
14/01/19 treadmill running normundiņš 1.38 09:45 156 07:03 8.49 ir
14/01/19 Rīta Skrējiens Swimrunner 6.05 43:54 129 10 07:15 8.27 ir
14/01/19 šļura, peļķes, sniga - komplekts zandarts 9.13 1:01:41 139 27 06:45 8.88 ir
14/01/19 rr7 edGars 5.01 31:08 06:12 9.66 ir
14/01/19 Skrējiens oskarsdamb 9.16 51:38 144 05:38 10.64 ir
14/01/19 Rīts OreMan 13.00 1:05:50 05:03 11.85 ir
14/01/19 7 km (0°C; ZR 3 m/s) atisx 7.00 46:20 148 40 06:37 9.06 ir
14/01/19 Rīta slidošana skai-tlot-ajs 8.00 50:28 06:18 9.51 ir
14/01/19 Izkustos MarksOzo 8.46 50:03 05:54 10.14 ir
14/01/19 Running Aivysuperman 5.01 31:08 131 06:12 9.66 ir
14/01/19 Sniegam sniegot - rīts parastais Jānis_v 5.60 29:26 05:15 11.42 ir
14/01/19 rita pikols 11.05 1:26:54 119 76 07:51 7.63 ir
14/01/19 tipu tapu GintsK 8.08 42:39 05:16 11.37 ir
14/01/19 Vēl nevaru. (Pirmais no visiem! 05:10) Didzo 2.88 19:00 06:35 9.09 ir
13/01/19 Skrējiens Janis_O 13.05 1:09:18 05:18 11.30 ir
13/01/19 Sigulda pa kalniņiem Santa.birgele 10.02 1:30:19 09:00 6.66
13/01/19 Skrējiens no baseina Helliza 8.21 56:24 06:52 8.73 ir
13/01/19 pludmale teicamnieks 8.00 1:00:00 07:30 8.00 ir
13/01/19 Ziemas Magnēta 28 kārta pie Alfas jestrais 8.70 59:22 168 43 06:49 8.79 ir
13/01/19 93.0 m2 Ønske 5.38 34:00 06:19 9.49 ir
13/01/19 15 km Agate_K 15.13 1:28:44 153 05:51 10.23 ir
13/01/19 Apsniguša meža izbaudīšana Aktieris 15.20 1:28:55 05:50 10.26 ir
13/01/19 6. Dobele Vīlīte 12.70 1:23:26 06:34 9.13 ir
13/01/19 20'+ 5x10' up down (ar 2') + 2km @ 4:15 + 10' rubernmardom 17.27 1:36:37 141 342 05:35 10.72 ir
13/01/19 Long run kominieks 9.37 1:13:24 139 07:50 7.66 ir
13/01/19 Skrējiens buraam 4.12 27:27 06:39 9.01 ir
13/01/19 Garais Grāmatvedis 20.53 2:16:49 85 06:39 9.00 ir
13/01/19 7diena tomick 10.00 57:05 05:42 10.51 ir
13/01/19 Pa mierīgo, jo diezgan ļoti dur celī James87 18.00 1:25:28 140 04:44 12.64 ir
13/01/19 Slīd uz notīrītām ielām un trotuāriem, bet gatavojos sisemaratonam Lielkuilis 5.04 25:12 05:00 12.00 ir
13/01/19 Skrējiens drafts 17.37 1:42:07 05:52 10.21 ir
13/01/19 Orientēšanās zetto 7.44 58:49 07:54 7.59 ir
13/01/19 Skrējiens mozgovoj ribak 20.00 1:36:37 04:49 12.42 ir
13/01/19 Skrējiens annele 7.75 1:06:20 08:33 7.01 ir
13/01/19 Skrējiens Lubyz 11.76 1:06:22 05:38 10.63 ir
13/01/19 Skrējiens ZZ88 12.05 1:09:24 05:45 10.42 ir
13/01/19 Skrējiens kmamedova 10.02 1:05:14 06:30 9.22
13/01/19 Skrējiens xorix 6.01 33:00 05:29 10.93 ir
13/01/19 Skrējiens cheburs 12.50 1:03:33 05:05 11.80 ir
13/01/19 Skrējiens zizis 8.59 1:03:32 07:23 8.11
13/01/19 Skrējiens Oscilis 10.51 1:03:56 06:04 9.86 ir
13/01/19 LRM 12.4. (042) MBirums 6.14 37:20 137 30 06:04 9.87 ir
13/01/19 airport road runnerchick 25.00 2:20:45 125 05:37 10.66 ir
13/01/19 Skrējiens Jaudinieks 16.45 1:44:44 06:22 9.42 ir
13/01/19 Skrējiens johaidi 22.34 2:10:05 05:49 10.30 ir
13/01/19 Skrējiens PeterisS 13.84 1:22:04 05:55 10.12
13/01/19 Skrējiens Amelie 0.31 02:09 06:56 8.65 ir
13/01/19 Orientēšanās Amelie 7.16 58:50 08:13 7.30 ir
13/01/19 Skrējiens uzzy 11.46 1:06:48 05:49 10.29 ir
13/01/19 Skrējiens Ila_Kantī 0.36 02:22 06:34 9.13
13/01/19 Skrējiens Ila_Kantī 10.34 1:05:37 06:20 9.45
13/01/19 Skrējiens Casperr 10.53 51:37 04:54 12.24 ir
13/01/19 Skrējiens Jurgis_Klav 6.94 45:01 06:29 9.25
13/01/19 Skrējiens experc 26.32 2:33:55 05:50 10.26 ir
13/01/19 Skrējiens LEICHA 6.01 32:06 05:20 11.23
13/01/19 Skrējiens Martins.Krumins 25.27 2:03:04 04:52 12.32 ir
13/01/19 Skrējiens zandarts 9.27 57:47 149 40 06:14 9.63 ir
13/01/19 Skrējiens rmamedov 13.81 1:20:54 05:51 10.24 ir
13/01/19 Skrējiens NITRO 12.08 1:11:00 05:52 10.21 ir
13/01/19 Skrējiens Natthe 18.00 1:48:03 138 06:00 10.00 ir
13/01/19 Skrējiens Andrejs V. 10.08 51:34 05:06 11.73 ir
13/01/19 mājas palis redzi 17.39 1:48:53 06:15 9.58
13/01/19 Svētdiena Labinieks 10.04 52:50 05:15 11.40 ir
13/01/19 pirmais pusmaratons 2019 mimite 21.12 2:22:11 156 06:43 8.91 ir
13/01/19 Sandsjöbacka Trail 2019 Ultra Triple (Day 3, 89k) Bubu 86.23 8:52:03 06:10 9.72 ir
13/01/19 Rīta skrējiens Krī 20.40 2:16:53 134 15 06:42 8.94 ir
13/01/19 Apkārt pilsētai spruuds 21.00 1:53:59 05:25 11.05 ir
13/01/19 Sniegs un sālījums Ultralapsa 20.00 2:09:37 151 95 06:28 9.26 ir
13/01/19 long run puuce 21.78 2:04:53 141 05:44 10.46 ir
13/01/19 Azimuts-Gaujiena polar 10.42 1:25:41 164 225 08:13 7.30 ir
13/01/19 Vecā Jaunā gada vakara skrējiens Alice 16.04 1:50:06 153 06:51 8.74 ir
13/01/19 Supervaroņi Siguldā (Serpentīns) Ina 16.00 1:52:11 154 495 07:00 8.56 ir
13/01/19 2 jūdžu skrējiens Uzvaras parkā marchello_ 3.20 13:36 04:15 14.12 ir
13/01/19 Iesildisana un atsildisanas Richa_K 2.40 23:20 110 09:43 6.17 ir
13/01/19 Ar dēlu pa Karostu un Beberliņiem. Ginc 12.00 1:17:46 35 06:28 9.26 ir
13/01/19 Skrējiens Prestons 18.06 1:50:01 142 74 06:05 9.85 ir
13/01/19 Treninš Richa_K 18.06 1:33:36 146 05:10 11.58 ir
13/01/19 Skrējiens Rīga #2 KVerdens 12.30 1:21:12 150 19 06:36 9.09 ir
13/01/19 Lidl aplis. gintsp 5.13 33:13 06:28 9.27 ir
13/01/19 Skrējiens mtiger 24.38 2:19:45 05:43 10.47 ir
13/01/19 Atsildīšanās ozols009 2.50 14:12 138 27 05:40 10.56 ir
13/01/19 VS 17km seismologs 15.50 1:24:38 133 22 05:27 10.99 ir
13/01/19 PB stadionā, 7.koptreniņš ar Jāni ozols009 10.01 39:56 177 03:59 15.04 ir
13/01/19 Iesildīšanās līdz stadionam ozols009 2.10 12:05 135 22 05:45 10.43 ir
13/01/19 Pa asfaltētu ielu Pičuks Dz 3.60 26:24 118 07:20 8.18
13/01/19 Treniņš Black Canary 9.05 1:00:24 06:40 8.99
13/01/19 Tumsa neirula 3.27 24:58 136 07:38 7.86 ir
13/01/19 12.:03, apraksts Dziņa 22.50 2:26:46 155 06:31 9.20 ir
13/01/19 8.treniņš Daiguciitis 14.13 1:23:11 05:53 10.19 ir
13/01/19 nakts orient Tallinā AigarsOKZK 8.29 52:40 06:21 9.44 ir
13/01/19 Mājup. Hiēna 2.18 13:18 06:06 9.83 ir
13/01/19 Šri Činmoja 2 jūdžu skrējiens. 1.kārta. Hiēna 3.20 14:15 04:27 13.47 ir
13/01/19 Mazliet ātrāks skrējiens Raitis 12.00 58:16 04:51 12.36 ir
13/01/19 Uz sacīksti. Hiēna 2.15 12:17 05:42 10.50 ir
13/01/19 Magnēts Rasels 7.90 51:30 140 15 06:31 9.20 ir
13/01/19 uz/no Rasels 6.60 43:30 06:35 9.10 ir
13/01/19 Vakars uldis15 10.00 47:06 04:42 12.74 ir
13/01/19 Sacensības.Tradicinis bégimis skritas laivés gynéju dienai pamineti. dainelis 7.73 34:39 168 04:28 13.39 ir
13/01/19 Snow battle in night Ugis 10.75 1:01:46 141 05:44 10.44 ir
13/01/19 Treniņš Alvals 19.09 1:58:37 06:12 9.66 ir
13/01/19 R maffija 6.40 38:28 06:00 9.98 ir
13/01/19 Tampere GK 14 10.01 53:42 168 05:21 11.18 ir
13/01/19 1 rinaldins 1.00 04:46 04:46 12.59
13/01/19 Skrējiens DS93 26.00 1:38:00 03:46 15.92
13/01/19 Rita rosme azhons 1.60 09:10 05:43 10.47 ir
13/01/19 Brocēni-Draudzība pa vecām sliedēm. Gīča 14.00 1:18:31 135 05:36 10.70 ir
13/01/19 Pa neslīdoša sniega celiņiem Jānis_v 13.00 1:11:00 05:27 10.99 ir
13/01/19 skriešana dadadzis 5.30 45:01 149 08:29 7.06 ir
13/01/19 ............ vitaminka D 11.54 57:13 141 04:57 12.10 ir
13/01/19 Skrējiens Wictoria 11.43 1:08:43 06:00 9.98 ir
13/01/19 Skrējiens Laaurappeeterzone 18.05 1:46:19 05:53 10.19 ir
13/01/19 #12.12.7. JurBer 10.10 1:10:00 139 06:55 8.66 ir
13/01/19 Airobais Treniņš runner-arrnis 17.00 1:24:12 138 98 04:57 12.11 ir
13/01/19 ] 달 산책 cumulus 13.01 1:17:29 109 05:57 10.07 ir
13/01/19 Rīts pilsētā un apkārt englishteacher 20.00 1:36:37 04:49 12.42 ir
13/01/19 Uz pilsētas centru un atpakaļ. Uldzha 7.67 53:05 06:55 8.67 ir
13/01/19 Skrejiens VP13 21.17 1:44:28 04:56 12.16 ir
13/01/19 Telford park run 5 K egiks 5.00 21:37 159 04:19 13.88 ir
13/01/19 Supervaroņi Siguldā. didzzzons 14.16 1:27:49 06:12 9.67
13/01/19 iesildishanas egiks 2.28 12:04 139 05:17 11.34 ir
13/01/19 Pulsa treniņš. didzzzons 20.09 1:32:02 04:34 13.10
13/01/19 Pulsa treniņš. didzzzons 12.01 1:00:30 05:02 11.91
13/01/19 Tempa treniņš. didzzzons 15.01 1:13:17 04:52 12.29
13/01/19 Vēlreiz pa veloceļu m.jordan 10.78 51:25 04:46 12.58 ir
13/01/19 Grīziņš-Supervaroņi. didzzzons 10.11 1:06:02 06:31 9.19
13/01/19 Grīziņkalnā Andrejs 13.09 1:05:22 161 04:59 12.02 ir
13/01/19 Skrējiens Janxxx 10.06 50:02 04:58 12.06 ir
13/01/19 Skrējiens Lauris 10.27 1:16:31 140 07:27 8.05 ir
13/01/19 Skrējiens kaķenīte 5.00 34:44 147 06:56 8.64 ir
13/01/19 līdz Nestei Diddi 7.29 48:42 06:40 8.98 ir
13/01/19 uz slēpēm pie mājas Kalnu Dace 5.00 54:30 130 10:54 5.50
13/01/19 Zasulauks Kaut kas rapo pa roku 6.06 34:12 05:38 10.63 ir
13/01/19 #52 SL1. Mierīgā garā pa Mežparka takām ar Aivaru. Daudz sniedziņa. +71m, -5C, 09:01 antra 10.01 1:07:18 161 71 06:43 8.92 ir
13/01/19 Skrējiens Māris 16.38 1:31:19 05:34 10.76
13/01/19 Veloceliņš topinjs 12.08 1:04:10 157 05:18 11.30 ir
13/01/19 skrējiens Gatis Krūze 6.00 34:17 05:42 10.50 ir
13/01/19 Biķernieku ielas ciku caku Sauļuks 19.09 1:55:48 143 06:03 9.89 ir
13/01/19 17.00.lēnais MAKRO 5.20 28:42 125 05:31 10.87 ir
13/01/19 Skrējiens ruducis 24.00 2:15:32 05:38 10.62 ir
13/01/19 Trīs meži ar vīru Spāre lido 13.38 1:28:12 166 21 06:35 9.10 ir
13/01/19 V Trakais 22.00 1:38:48 04:29 13.36 ir
13/01/19 5 Guntis.Balodis 13.52 1:20:54 05:59 10.03
13/01/19 LAISVĖS GYNĖJŲ DIENOS BĖGIMAS Kampars 8.00 29:09 03:38 16.47
13/01/19 Stadiona faktors ar Andi Jay-P 12.67 1:14:00 131 72 05:50 10.27 ir
13/01/19 Garām ivitis 5.00 31:40 06:20 9.47
13/01/19 Svētdienas +2 D3 slidens reizem ar lietu un sniedziņu Aldis B 17.12 1:50:03 169 86 06:25 9.33 ir
13/01/19 Kalni Freelancer 20.56 2:13:00 155 604 06:28 9.28 ir
13/01/19 Promenade bredato 21.48 1:46:50 169 51 04:58 12.06 ir
13/01/19 Rīta skrējiens Edmunds 21.32 1:56:22 05:27 10.99 ir
13/01/19 Svētdien Biruta 13.62 1:31:01 06:40 8.98 ir
13/01/19 Engures mežu maldos. Sniegs. RimantsL 17.00 1:41:47 05:59 10.02 ir
13/01/19 Kamēr meita slido, tikmēr es izskrējos Ogrē Heņča 5.70 35:41 06:15 9.58 ir
13/01/19 pa mežu ar suni Rozens 12.54 1:29:44 123 07:09 8.38 ir
13/01/19 Šrī Činmoja 2 jūdžu skrējiens lielaa saule 3.20 17:09 05:21 11.20 ir
13/01/19 Uz bantes Maikijs 3.00 20:26 06:48 8.81
13/01/19 Skrējiens kaķenīte 5.09 31:00 06:05 9.85 ir
13/01/19 Svētdienis. Džokera spēļu laukums Sarkandaugavā. SelfijuPavēlniece 10.50 1:24:38 179 217 08:03 7.44 ir
13/01/19 Pa šļuru Ance K 7.51 56:00 142 07:27 8.05 ir
13/01/19 R maffija 10.00 1:00:03 06:00 9.99 ir
13/01/19 Mazliet Papals27 4.51 38:43 08:35 6.99
13/01/19 Running Aivysuperman 10.01 58:23 05:49 10.29 ir
13/01/19 Valgundes mežos noskrietsevi 15.06 1:27:50 05:49 10.29
13/01/19 Upe (96,6) Aivars 7.30 1:00:05 117 11 08:13 7.29 ir
13/01/19 7:00 Krasta iela(Pēdējie 7km=avg.4:58/1km/+2) GačusSkrunda 17.75 1:27:04 28 04:54 12.23 ir
13/01/19 pirmais šogad pēc atgriešanās Latvijā Dina 7.05 46:33 157 06:36 9.09 ir
13/01/19 viegls skrējiens Jolis 20.10 1:47:09 05:19 11.26
13/01/19 slinkumu pārvarot Rainers 15.02 1:26:07 05:44 10.46 ir
13/01/19 Ziemas Magnēts Signis 5.64 55:04 09:45 6.15 ir
13/01/19 Pirmais garais šogad!!! Huch 24.61 2:00:00 04:52 12.31 ir
13/01/19 Mežaparks. sigita 11.57 1:06:38 139 05:45 10.42 ir
13/01/19 Skrējiens Swimrunner 19.19 2:17:20 135 74 07:09 8.38 ir
13/01/19 Tukums sergejs1 4.25 28:05 06:36 9.08 ir
13/01/19 aer villijs78 13.03 1:12:22 147 05:33 10.80 ir
13/01/19 Treniņš Dainis 12.22 1:20:18 06:34 9.13 ir
13/01/19 Supervaroņi Siguldā - 9x Ziediņš + 2km tempā Raķete 14.00 1:36:50 163 776 06:55 8.67 ir
13/01/19 M-Mārkalnes-M Kuks 14.10 1:21:00 142 05:44 10.44 ir
13/01/19 12 km (0°C; D 4 m/s) atisx 12.00 1:17:47 149 38 06:28 9.26 ir
13/01/19 SK Dzērvene koptreniņš Voldžiks 27.00 2:40:00 133 05:55 10.13 ir
13/01/19 I've got time, I've got love. Got confidence, you'll rise above Cukuriņš 18.20 1:44:45 776 05:45 10.42 ir
13/01/19 Mārupe (basàm 9km) einmed 16.38 1:43:32 126 06:19 9.49 ir
13/01/19 Sv-dienas skréjiens Andris__Z 3.03 21:55 134 07:13 8.30 ir
13/01/19 Starp Ērmiķiem un Jēkabniekiem Pičuks Dz 8.50 58:35 129 06:53 8.71
13/01/19 Rīta skrējiens Rupucis_ 16.42 1:44:48 155 06:22 9.40 ir
13/01/19 ... Aļona 13.03 1:36:56 07:26 8.07 ir
13/01/19 Skrējiens Dzintars 15.51 1:20:15 05:10 11.60 ir
13/01/19 iesildoishanas pirms shri-chinmoj čirka 1.27 07:55 06:14 9.63
13/01/19 shri-chinmoj parspej sevi čirka 3.20 16:19 05:05 11.77
13/01/19 Skrējiens chunka 21.18 2:03:45 05:50 10.27 ir
13/01/19 Ils sl 10 maruks 14.50 1:31:09 124 06:17 9.54
13/01/19 WU-20’+ 8x(Ziediņkalns augšā/lejā +2’) +2km@4:22+ CD-2’ forshais1 12.66 1:35:20 710 07:31 7.97 ir
13/01/19 sniegs kveks 21.00 1:45:30 05:01 11.94
13/01/19 7. SV Sigulda H707 Brainārs 14.15 1:35:28 163 06:44 8.89 ir
13/01/19 Uz Granīta ielu un Ulbroku bro 22.84 2:35:14 138 95 06:47 8.83 ir
13/01/19 Svētdienis _Edgars_ 22.25 1:56:38 05:14 11.45 ir
13/01/19 pirms un pēc t andris13 10.00 50:00 05:00 12.00 ir
13/01/19 6 - piecminūtes zusurs 9.48 1:00:01 06:19 9.48 ir
13/01/19 ts 4:00-3:45-3:40 andris13 3.00 11:25 03:48 15.77 ir
13/01/19 Riga Runners ilZZuks 35.69 3:27:29 05:48 10.32
13/01/19 Treniņš andis.deze 11.36 49:08 154 36 04:19 13.87 ir
13/01/19 Dienas garais skrējiens gar Daugavu. voļda 23.40 1:59:59 152 53 05:07 11.70 ir
13/01/19 Balto koku laikā purene_vulgaris (parasta) 6.50 45:49 07:02 8.51 ir
13/01/19 tipu tapu GintsK 16.21 1:31:27 05:38 10.64 ir
13/01/19 dienas pikols 15.16 1:53:18 125 21 07:28 8.03 ir
13/01/19 Rīta riksis uldis15 15.80 1:17:41 04:55 12.20 ir
13/01/19 Svētdiena Inzy 7.53 54:51 07:17 8.24 ir
13/01/19 S19.54 [Supervaroņi] Alvis D 15.00 1:41:06 06:44 8.90 ir
13/01/19 Mans pirmais šogad Kiky 15.63 1:39:24 06:21 9.43 ir
13/01/19 Pirmais zāģis pēc OP. Sniegā. Inga_K 10.03 1:07:11 150 45 06:41 8.96 ir
13/01/19 Turiet par mani īkšķus. Didzo 3.32 18:20 05:31 10.87 ir
13/01/19 Liela diena. Didzo 2.70 15:49 05:51 10.24 ir
13/01/19 treniņš gintss 10.21 1:00:08 145 05:53 10.19
13/01/19 Skrējiens. garaissss 10.45 1:01:48 149 05:54 10.15 ir
13/01/19 Lloret de Mar - 19 noris 21.51 1:40:23 119 04:40 12.86 ir
13/01/19 Svētdienas rīta pamošanās ziemas pasakā. bantiite 5.05 30:55 06:07 9.80 ir
13/01/19 Vecāķi personaskods 5.11 31:51 153 06:13 9.63 ir
13/01/19 Pa Jūrmalu Samiks 9.60 58:54 06:08 9.78
13/01/19 Baigi spolē aKasIr 7.07 44:25 06:16 9.55 ir
13/01/19 Weekenda vetrasputns 12.00 1:20:16 145 06:41 8.97 ir
13/01/19 Skrējiens Chuncha 14.00 1:21:13 05:48 10.34 ir
13/01/19 Skrējiens frišais 7.51 42:12 05:37 10.68 ir
13/01/19 Rīts skai-tlot-ajs 12.80 1:20:00 06:15 9.60 ir
13/01/19 Skrējiens raraitis 26.00 1:53:40 04:22 13.72 ir
13/01/19 Skrējiens vitjka 5.19 30:19 05:50 10.27 ir
13/01/19 Superīgs rīts Ginchaa 14.24 1:30:10 127 06:19 9.48
13/01/19 Brīvdienu rīts ievajansone 6.08 43:34 137 19 07:09 8.37 ir
13/01/19 Smagas kājas VilnisV 7.50 53:00 07:04 8.49 ir
13/01/19 Agrais rīts OreMan 10.00 51:58 05:11 11.55 ir
13/01/19 Pusmaratons pa Iecavu ar Jāni ozols009 21.15 2:14:37 133 75 06:21 9.43 ir
12/01/19 # Stunda 8.57 51:12 05:58 10.04 ir
12/01/19 Med Merle Kristiāns 3.59 21:42 06:02 9.93 ir
12/01/19 Skrējiens Helliza 5.21 34:49 06:40 8.98 ir
12/01/19 ventspils jurcha 12.02 1:20:40 06:42 8.94
12/01/19 Pulsa 30 km rubernmardom 32.00 2:45:03 128 87 05:09 11.63 ir
12/01/19 treadmill DServ 13.50 1:10:52 05:14 11.43 ir
12/01/19 Skrējienu pārtraucu, sajutos slims Ugisdatavs 7.90 42:30 128 05:22 11.15 ir
12/01/19 Pa mierīgo, celis sāk īdēt un dur James87 14.00 1:04:24 141 04:36 13.04 ir
12/01/19 Skrējiens mozgovoj ribak 3.80 17:25 04:35 13.09 ir
12/01/19 Sestdiena Labinieks 17.38 1:27:26 05:01 11.93 ir
12/01/19 Tallinā orientēšanās ildze 4.50 31:30 146 07:00 8.57 ir
12/01/19 Rīta skrējiens Krī 14.13 1:28:06 137 06:14 9.62 ir
12/01/19 Pa pludmali spruuds 10.00 46:58 04:41 12.78 ir
12/01/19 Sandsjöbacka Trail 2019 Ultra Triple (Day 2, 50k) Bubu 50.99 4:41:45 05:31 10.86 ir
12/01/19 Treninš Richa_K 18.43 1:45:33 144 05:43 10.48 ir
12/01/19 Sestdienas aplītis lvingr 2.22 20:00 122 09:00 6.66 ir
12/01/19 Treniņš Black Canary 7.00 49:09 07:01 8.55
12/01/19 10:38 Dziņa 16.50 1:48:02 159 06:32 9.16 ir
12/01/19 Neskrienamas ielas Raitis 15.20 1:23:20 05:28 10.94 ir
12/01/19 Rita rosme azhons 1.60 09:00 05:37 10.67 ir
12/01/19 ............ vitaminka D 8.54 41:54 143 04:54 12.23
12/01/19 Skrējiens (6*2m/ c 1m) Laaurappeeterzone 11.14 1:03:37 05:42 10.51 ir
12/01/19 #11.12.6. JurBer 5.58 40:03 135 07:10 8.36 ir
12/01/19 Vienpadsmit Aleks Kor 11.20 1:03:15 145 05:38 10.62
12/01/19 uz slēpēm centrā Kalnu Dace 10.00 1:52:10 105 11:13 5.35
12/01/19 Skrējiens Māris 8.72 50:05 05:44 10.45
12/01/19 V Trakais 9.33 39:39 04:14 14.12 ir
12/01/19 taciņas Kampars 8.00 40:00 05:00 12.00
12/01/19 Pa mežu Maikijs 5.00 35:52 07:10 8.36 ir
12/01/19 Pa riteņbraucēju celiņu lielaa saule 14.10 1:36:01 06:48 8.81 ir
12/01/19 Jelgavas telpu orientēšanās J4V nonnis 1.73 18:52 10:54 5.50 ir
12/01/19 93.1 Ønske 6.45 ir
12/01/19 Jelgavas telpu orientēšanās J4V nonnis 1.67 20:24 12:12 4.91 ir
12/01/19 Basām Jūrmalā ar sievu einmed 9.06 1:11:45 119 07:55 7.58 ir
12/01/19 ... Aļona 12.24 1:34:53 07:45 7.74 ir
12/01/19 iljguciems čirka 4.80 37:55 07:53 7.60
12/01/19 Noskrien Ziemu Iecavā ar Andi Jay-P 12.56 1:15:00 130 52 05:58 10.05 ir
12/01/19 asfalts kveks 11.00
12/01/19 4 x 1,5min. 5:00 tempā. Uldzha 5.99 37:36 06:16 9.56 ir
12/01/19 Gatavošanās RobertsR 6.01 32:51 168 05:27 10.98 ir
12/01/19 Ziemas Magnēta 27.kārta - Brekši. ArnisŠ 8.36 58:03 06:56 8.64
12/01/19 Paskrien GintsB 15.15 1:24:38 129 17 05:35 10.74 ir
12/01/19 Līdz kaklam. Didzo 0.61 03:30 05:44 10.46
12/01/19 Ogresgals. Johny 8.13 42:12 05:11 11.56
12/01/19 Skrējiens DS93 18.00 1:12:00 04:00 15.00
12/01/19 Fartlek kominieks 5.26 38:07 148 07:14 8.28 ir
12/01/19 Skrējiens ruducis 15.48 1:26:09 05:33 10.78 ir
12/01/19 ] 달 산책 cumulus 13.25 1:17:25 119 05:50 10.27 ir
12/01/19 Serpentīns Ultralapsa 10.00 1:21:27 149 360 08:08 7.37 ir
12/01/19 treadmill 15x400/200@95 warmup cooldown runnerchick 15.00 1:15:21 166 05:01 11.94 ir
12/01/19 viegls skrējiens pragma 15.00 1:38:00 160 06:32 9.18
12/01/19 "Ikdienišķais" pēc km, bet pa citu maršrutu Andris M 13.10 1:04:03 156 204 04:53 12.27 ir
12/01/19 Skrējiens PeterisS 13.91 1:27:51 06:18 9.50
12/01/19 Skrējiens experc 8.64 51:36 05:58 10.05 ir
12/01/19 Skrējiens rmamedov 8.00 48:41 06:05 9.86 ir
12/01/19 Skrējiens ricardsbalcis 15.01 1:38:28 06:33 9.15 ir
12/01/19 Skrējiens vitjka 13.76 1:15:51 05:30 10.88 ir
12/01/19 Skrējiens ZZ88 10.52 1:02:25 05:55 10.11 ir
12/01/19 Skrējiens PriekaPuļķis 1.19 07:18 06:08 9.78 ir
12/01/19 Skrējiens Natthe 8.00 45:32 148 05:41 10.54 ir
12/01/19 Sestienas īsais... Ginc 8.01 49:16 06:09 9.76 ir
12/01/19 Skrējiens Andrejs V. 10.07 51:35 05:07 11.71 ir
12/01/19 Skrējiens NITRO 12.05 1:13:36 06:06 9.82 ir
12/01/19 Skrējiens des 10.25 56:30 05:30 10.88 ir
12/01/19 Skrējiens Elhana 11.16 1:17:52 06:58 8.60 ir
12/01/19 Skrējiens ezisskrien 14.56 1:24:26 05:47 10.35 ir
12/01/19 Skrējiens xorix 2.07 28:49 13:55 4.31 ir
12/01/19 Skrējiens xorix 0.47 19:56 42:24 1.41 ir
12/01/19 Skrējiens xorix 4.01 23:35 05:52 10.20 ir
12/01/19 Skrējiens johaidi 25.33 2:35:56 06:09 9.75 ir
12/01/19 Skrējiens vaicis 20.06 2:00:01 05:58 10.03
12/01/19 Skrējiens Oscilis 9.01 58:10 06:27 9.29 ir
12/01/19 Skrējiens Amelie 4.31 30:49 07:09 8.39 ir
12/01/19 Skrējiens zandarts 11.77 1:12:52 140 45 06:11 9.69 ir
12/01/19 Skrējiens Lubyz 12.45 1:14:27 05:58 10.03 ir
12/01/19 Skrējiens mriden 15.01 1:24:39 05:38 10.64 ir
12/01/19 Skrējiens edžus11 8.02 49:13 06:08 9.78 ir
12/01/19 Skrējiens kmamedova 7.04 49:19 07:00 8.57
12/01/19 Skrējiens Mr.Linde 7.22 47:57 06:38 9.03 ir
12/01/19 Skrējiens Janis_O 3.02 16:21 05:24 11.08 ir
12/01/19 Skrējiens Jurgis_Klav 6.07 40:00 06:35 9.11
12/01/19 Skrējiens Janxxx 2.48 20:50 08:24 7.14 ir
12/01/19 Skrējiens Janxxx 1.93 15:38 08:06 7.41 ir
12/01/19 LRM 12.3. (041) MBirums 12.96 1:09:34 155 54 05:22 11.18 ir
12/01/19 22.00.Lēnais MAKRO 11.10 58:13 126 05:14 11.44 ir
12/01/19 ar suni tomick 7.00 42:02 153 06:00 9.99 ir
12/01/19 vakars tumšs , nikns mazs suns, intresanti Rucavs 16.37 1:17:48 04:45 12.62 ir
12/01/19 Skrējiens +1 C InTi68 16.50 1:45:51 149 06:24 9.35 ir
12/01/19 Šonedēļ izteikta cīņa ar slinkumiņu. AngelLika21 12.50 1:12:12 05:46 10.39 ir
12/01/19 Pret buldozeru Lielkuilis 7.04 33:18 04:43 12.68 ir
12/01/19 Skrējiens Lauris 4.94 38:41 135 07:49 7.66 ir
12/01/19 Skrējiens mtiger 14.40 1:09:03 156 04:47 12.51 ir
12/01/19 R maffija 18.00 1:41:21 05:37 10.66 ir
12/01/19 Jelgava-Ozolnieki-Jelgava. Gīča 10.00 54:30 135 05:27 11.01 ir
12/01/19 Telpu orientēšanās Jelgavas 4.vsk. Gīča 5.80 59:18 126 10:13 5.87 ir
12/01/19 Parka aplītis Girtss 5.51 43:57 138 07:58 7.52 ir
12/01/19 10.49 km Andrisss 10.49 1:06:03 06:17 9.53 ir
12/01/19 Mežaparks - Skanste Ina 20.30 2:18:48 152 40 06:50 8.78 ir
12/01/19 Garais lēnītis, +5° Alarion 10.22 1:45:08 123 10:17 5.83 ir
12/01/19 -1*Ziepčiks Rozens 11.77 1:03:19 157 05:22 11.15 ir
12/01/19 Krastmala ilZZuks 13.00 1:08:24 05:15 11.40 ir
12/01/19 Gatavošanās Lattelecom maijā '19 sanitina 3.33 24:16 162 16 07:17 8.23 ir
12/01/19 Milzkalne sergejs1 9.01 1:00:18 06:41 8.97 ir
12/01/19 Vakars uldis15 9.90 48:13 04:52 12.32 ir
12/01/19 Tren Rebelmusic 8.00 49:00 150 06:07 9.80
12/01/19 Vakars Ginchaa 10.00 1:02:00 128 06:12 9.68
12/01/19 Sestdienas rīta piesnigušās parka taciņas. bantiite 6.38 43:13 06:46 8.86 ir
12/01/19 Ap Grīziņkalnu Kuks 8.70 47:00 148 05:24 11.11 ir
12/01/19 Lidz Victorian town un atpakal egiks 11.38 55:48 147 04:54 12.24 ir
12/01/19 lēnais gar jūru Emons 8.39 51:30 06:08 9.77 ir
12/01/19 13:10 Mežaparks(-1) GačusSkrunda 11.75 1:00:12 18 05:07 11.71 ir
12/01/19 Lēni, pa pilsētu, sniegs, ledus, +0.3...-2.2C sola.scriptura 8.15 1:16:22 142 09:22 6.40 ir
12/01/19 Pa Vecāķu veloceliņu m.jordan 8.53 41:59 04:55 12.19 ir
12/01/19 treadmill running normundiņš 5.54 40:00 157 07:13 8.31 ir
12/01/19 Tukums sergejs1 9.03 1:02:30 06:55 8.67 ir
12/01/19 Rajons eddyboyz 6.11 41:56 150 06:51 8.74 ir
12/01/19 Uz mežaparku bleedis 10.25 1:07:13 147 46 06:33 9.15 ir
12/01/19 sava prieka pēc -1'C Špicka 7.51 42:13 05:37 10.67 ir
12/01/19 Pa Siguldas kāpnēm un serpentīniem Samiks 15.38 1:46:28 06:55 8.67
12/01/19 Skrējiens Swimrunner 6.05 39:40 144 33 06:33 9.15 ir
12/01/19 Rīta Rosme Swimrunner 4.53 33:09 128 6 07:19 8.20 ir
12/01/19 Magnēts Rasels 7.00 46:25 140 22 06:37 9.05
12/01/19 uz/no Rasels 13.70 1:37:05 123 07:05 8.47 ir
12/01/19 Celiņš suns 10.00 1:06:38 06:39 9.00 ir
12/01/19 Pie Staļģenes un Emburgas Pičuks Dz 9.30 1:03:19 136 06:48 8.81
12/01/19 D tilts bredato 6.19 33:10 165 05:21 11.20 ir
12/01/19 ar piespiešanos Rainers 11.06 1:03:56 05:46 10.38 ir
12/01/19 Leenaie druupijs 26.20 2:20:00 05:20 11.23 ir
12/01/19 Asfalts Dzo 21.60 1:44:46 04:51 12.37 ir
12/01/19 run Alligator 9.40 50:04 130 05:19 11.26 ir
12/01/19 skrējiens Kahn 15.00 1:39:40 06:38 9.03 ir
12/01/19 Piesnigušā mežā Cassandra 16.15 1:39:52 06:11 9.70 ir
12/01/19 Orientesanas M.Po 11.35 1:10:05 134 35 06:10 9.72 ir
12/01/19 Bez pārsteugiem - Sestdienas garais Freelancer 25.00 2:20:00 136 150 05:36 10.71 ir
12/01/19 23 km pulsā forshais1 23.00 2:08:38 23 05:35 10.73 ir
12/01/19 Sestdienis. Mežaparks. SelfijuPavēlniece 10.20 1:07:02 165 06:34 9.13 ir
12/01/19 Cold nights and the Sunday mornings, on your way and out of the grey Cukuriņš 26.18 2:13:23 05:05 11.78 ir
12/01/19 13.00.Lēnais MAKRO 14.00 1:17:15 126 05:31 10.87 ir
12/01/19 Rīta skrējiens Edmunds 16.14 1:28:37 05:29 10.93 ir
12/01/19 aer villijs78 10.11 57:38 153 05:42 10.53 ir
12/01/19 Rīts pilsētā 2 km + 2 (3:57; 3:53) + 1 + 1 (3:44) + 1 + 0.5 (3:41) + 0.5 + 0.5 (3:29) + 1.5 km englishteacher 10.00 48:05 04:48 12.48 ir
12/01/19 Lloret de Mar - 18 noris 15.43 1:09:57 49 04:32 13.24 ir
12/01/19 Skrējiens Chuncha 11.00 53:21 04:51 12.37 ir
12/01/19 Garais treniņš JanisSkrien 21.00 1:51:45 156 05:19 11.28 ir
12/01/19 ;-) dancisskrien 11.73 1:18:43 148 06:42 8.94
12/01/19 Jauns sākums Ineta 7.78 54:05 162 32 06:57 8.63 ir
12/01/19 brokastu pusgarais stjopachio 18.08 1:32:53 134 05:08 11.68 ir
12/01/19 Treniņš andis.deze 9.27 42:10 156 26 04:32 13.19 ir
12/01/19 Skrējiens Dzintars 11.08 53:42 04:50 12.38 ir
12/01/19 s/c andris13 13.40 1:00:00 04:28 13.40 ir
12/01/19 Upītis esot mocījies ar bezmiegu. Tāpēc tapa Zaļā zeme. anciite 9.41 1:01:00 06:28 9.26 ir
12/01/19 Pa Salaspili Aivars 5.28 10 ir
12/01/19 divi meži Rucavs 14.78 1:15:07 05:04 11.81 ir
12/01/19 Skrējiens Raķete 22.00 1:51:25 154 05:03 11.85 ir
12/01/19 Bernātu meža takas KarlisBumans 20.00 2:10:00 133 06:30 9.23 ir
12/01/19 Kāda 3nieks arī Andris__Z 3.03 21:32 132 07:06 8.44 ir
12/01/19 Skrējiens LPD 18.89 1:57:56 06:14 9.61 ir
12/01/19 Sestdienis _Edgars_ 16.10 1:22:29 05:07 11.71 ir
12/01/19 Rušinot sniegu mežā noskrietsevi 8.24 48:14 05:51 10.25
12/01/19 7 km (0°C; Z 3 m/s) atisx 7.00 44:37 153 22 06:22 9.41 ir
12/01/19 Saulītes pieliets rīts skai-tlot-ajs 10.00 1:12:44 07:16 8.25 ir
12/01/19 Noskriesimziemu29 Aikeris 10.03 1:17:04 141 07:41 7.81 ir
12/01/19 Skrējiens Dzaspers 6.25 36:46 05:52 10.20
12/01/19 Grīziņkalnā,pa apsnigušiem celiņiem Andrejs 10.50 53:45 156 05:07 11.72 ir
12/01/19 Pusmaratons Wictoria 21.04 2:03:53 05:53 10.19 ir
12/01/19 garskrējiens guncha 22.43 1:48:00 153 04:48 12.46 ir
12/01/19 foršs rīts ush 27.04 2:23:51 129 212 05:19 11.28 ir
12/01/19 Rīta riksis uldis15 16.00 1:20:53 05:03 11.87 ir
12/01/19 Melnezers - Āžu kalns. Sniegs. RimantsL 10.63 1:20:17 317 07:33 7.94 ir
12/01/19 Katlakalns - Rāmava - Valdlauči savanna 10.01 1:03:15 06:19 9.50 ir
12/01/19 Pa sniegu Ize_De 12.43 1:30:29 07:16 8.24 ir
12/01/19 Rīta saulē tīrā baltā sniegā Jānis_v 7.40 40:00 05:24 11.10 ir
12/01/19 Uz darbu aizvērt logus Sauļuks 5.32 32:51 146 06:10 9.72 ir
12/01/19 Skrējiens. garaissss 10.45 1:00:24 144 05:46 10.38 ir
12/01/19 rita pikols 15.09 1:53:11 120 19 07:30 8.00 ir
12/01/19 Jauns gads Inzy 10.08 1:18:27 07:46 7.71 ir
12/01/19 Rīta meža kalniņi+trepes un kupenas skrējiens voļda 12.07 1:06:23 149 159 05:29 10.91 ir
12/01/19 3x7 kalniņi seismologs 10.16 1:00:18 147 161 05:56 10.11 ir
12/01/19 Agrais rīts ar Andreju un kompāniju uz Linezeru gremdēties āliņģī OreMan 16.00 1:33:18 05:49 10.29 ir
12/01/19 Skrējiens Ila_Kantī 2.04 14:10 06:56 8.64
12/01/19 Skrējiens raraitis 15.15 1:17:10 05:05 11.78 ir
12/01/19 Brīvdienu rīts ievajansone 8.31 58:53 139 21 07:05 8.47 ir
12/01/19 Rīta lēnais gskunstins 8.60 50:46 154 05:54 10.16 ir
12/01/19 Skrējiens oskarsdamb 21.05 2:07:55 140 06:04 9.87 ir
12/01/19 Skrējiens frišais 24.94 2:13:31 05:21 11.21 ir
12/01/19 Aija (ne)atsāk edGars 5.01 36:02 07:11 8.34 ir
12/01/19 Te ir darbs! Raibacainais Ezītis 11.12 1:04:11 05:46 10.40 ir
12/01/19 Dedzinot uzkraato maruks 10.00 1:06:08 118 06:36 9.07
12/01/19 Sestdienas rītā Ginchaa 11.12 1:11:15 126 06:24 9.36
12/01/19 Long beach run VilnisV 12.01 1:29:00 132 07:24 8.10 ir
12/01/19 Skrējiens andis161 8.50
12/01/19 Rīta skrējiens. dainelis 5.00 26:12 142 05:14 11.45 ir
11/01/19 Skrējiens uz darbu Helliza 8.21 56:13 06:50 8.76 ir
11/01/19 Lēnais pa putru spaanietis 6.19 44:30 07:11 8.35 ir
11/01/19 Sandsjöbacka Trail 2019 Ultra Triple (Day 1, 25k) Bubu 32.56 3:05:42 05:42 10.52 ir
11/01/19 Skrējiens Bubu 2.01 11:20 05:38 10.64 ir
11/01/19 Treninš Richa_K 12.29 1:09:21 137 05:38 10.63 ir
11/01/19 Treadmill cheburs 8.82 50:02 132 05:40 10.58 ir
11/01/19 Pa sniegiem Black Canary 12.00 1:25:55 07:09 8.38
11/01/19 Rita rosme azhons 1.60 09:00 05:37 10.67 ir
11/01/19 skriešana dadadzis 3.41 30:01 147 08:48 6.82 ir
11/01/19 skrējiens (netīrīts sniegs, slidens) Laaurappeeterzone 13.15 1:16:12 05:47 10.35 ir
11/01/19 Skrējiens Māris 4.04 23:03 05:42 10.52
11/01/19 asfalts kveks 11.00
11/01/19 Skrējiens DS93 13.50 1:00:00 04:26 13.50
11/01/19 Ķengarags Ultralapsa 5.83 37:28 144 06:25 9.34 ir
11/01/19 airport road BRRRRRR-35 runnerchick 12.00 1:07:56 125 05:39 10.60 ir
11/01/19 Skrējiens ricardsbalcis 5.43 36:02 06:38 9.04 ir
11/01/19 Skrējiens MārcisB 7.06 45:40 06:28 9.28 ir
11/01/19 Skrējiens MārcisB 7.13 45:12 06:20 9.46 ir
11/01/19 Skrējiens uzzy 12.44 1:15:14 06:02 9.92 ir
11/01/19 Skrējiens Janis_O 12.18 1:09:50 05:44 10.46 ir
11/01/19 Skrējiens pirms pusnakts Jay-P 3.52 22:00 127 06:15 9.60 ir
11/01/19 92.8 Ønske 6.21 ir
11/01/19 Reaktors eddyboyz 6.06 51:29 126 08:29 7.06 ir
11/01/19 Pēc darba Ventspilē gra jūra bleedis 11.41 1:20:59 146 48 07:05 8.45 ir
11/01/19 mājas aplis redzi 10.02 1:02:32 06:14 9.61
11/01/19 WU-20’+drill+5x100m 2x(6x200m@3:30 caur 90”) caur 5’+ CD-10’ forshais1 13.28 1:10:05 52 05:16 11.37 ir
11/01/19 About everything that you're going through, my girl you got nothing to lose Cukuriņš 12.11 1:13:46 06:05 9.85 ir
11/01/19 Rīts mežā, beigās piestājot stadionā pie stieņiem pavingrot OreMan 12.00 1:00:57 05:04 11.81 ir
11/01/19 Skrējiens StonkaD 5.01 34:17 06:50 8.77 ir
11/01/19 Skrējiens pa sniegu Dzintars 12.04 1:01:41 05:07 11.71 ir
11/01/19 Sniega putra. Rainers 7.04 41:54 05:57 10.08 ir
11/01/19 pēc biezpiena nu taču Ugisdatavs 28.30 2:18:20 136 04:53 12.27 ir
11/01/19 Pa šoseju Pičuks Dz 3.50 25:36 116 07:18 8.20
11/01/19 gatavojos sisemaratonam ar brišanu un spolēšanu Lielkuilis 5.05 26:37 05:16 11.38 ir
11/01/19 Skrējiens Casperr 10.47 54:45 05:13 11.47 ir
11/01/19 Pēc šances uz dīķi peldēties. Valdis.M 2.09 09:27 04:31 13.27 ir
11/01/19 Pēc peldēšanās uz mājām, 4 km toplesā. Valdis.M 7.05 33:29 04:44 12.63 ir
11/01/19 Skrējiens IlgaisC 7.69 58:20 07:35 7.91 ir
11/01/19 Agri druupijs 30.50 2:30:00 1200 04:55 12.20 ir
11/01/19 Skrējiens xorix 5.32 29:38 05:34 10.77 ir
11/01/19 Pirms fiz examena Csinipatas 8.29 43:00 05:11 11.57 ir
11/01/19 Skrējiens raraitis 18.04 1:31:31 05:04 11.83 ir
11/01/19 Skrējiens mriden 12.05 1:06:54 05:33 10.81 ir
11/01/19 Veloceliņš topinjs 10.04 59:39 146 05:56 10.10 ir
11/01/19 Sniega putra Cassandra 10.10 1:00:25 05:58 10.03 ir
11/01/19 Skrējiens Martins.Krumins 7.01 34:07 04:52 12.33 ir
11/01/19 Skrējiens annele 5.77 46:40 08:05 7.42 ir
11/01/19 Skrējiens vaicis 10.29 1:05:54 06:24 9.37
11/01/19 Skrējiens JERO 6.03 29:23 04:52 12.31
11/01/19 Skrējiens PeterisS 10.18 55:39 05:27 10.98
11/01/19 21.00.Fitnesa centrā,Laktātais fartleks MAKRO 11.00 45:43 168 85 04:09 14.44 ir
11/01/19 R maffija 6.20 39:23 06:21 9.45 ir
11/01/19 skrējiens kopijs 11.44 1:19:09 140 06:55 8.67 ir
11/01/19 Tampere GK 14 10.00 55:52 168 05:35 10.74 ir
11/01/19 veloceliņš Kampars 12.00 58:00 04:50 12.41
11/01/19 B js79 13.10 1:23:02 127 06:20 9.47 ir
11/01/19 Promināde Dzaspers 6.82 39:01 05:43 10.49
11/01/19 pa sniegiem Inta Amoliņa 8.16 59:30 07:17 8.23 ir
11/01/19 Plura vien M.Po 15.00 1:31:01 130 30 06:04 9.89 ir
11/01/19 ... Aļona 8.02 1:04:44 08:04 7.43 ir
11/01/19 Mājup... Raibacainais Ezītis 11.00 1:03:36 05:46 10.38 ir
11/01/19 treniņš zālē mihails.basmanovs 10.00 49:10 04:55 12.20
11/01/19 Piektdien Biruta 5.03 33:37 06:40 8.98 ir
11/01/19 NW Trawemunde zirnis 9.50 ir
11/01/19 ziemas prieki marchello_ 12.00 1:05:35 05:27 10.98 ir
11/01/19 pa kupenām vitaminka D 12.16 1:03:47 143 05:14 11.44
11/01/19 Vakara +3 ZR 5/10 slidens nu ļoti Aldis B 7.84 51:00 169 67 06:30 9.23 ir
11/01/19 Drausmīgi ceļi, skrējās nenormāli smagi Ginchaa 12.50 1:17:33 156 06:12 9.67
11/01/19 recovery run guncha 6.01 30:31 138 05:04 11.82 ir
11/01/19 skrējiens 19-01/5 sturitis 7.98 49:43 143 06:13 9.63 ir
11/01/19 S19.53 Alvis D 17.50 1:23:41 04:46 12.55 ir
11/01/19 5 - 200 tīrīti metri 1.15km aplī zusurs 6.10 40:03 06:33 9.14 ir
11/01/19 #51 SL1. Lēnās, garās takas Beberbeķos. Traki daudz sniega, grūti. +275m, -2C, 16:08 antra 16.12 1:59:22 159 275 07:24 8.10 ir
11/01/19 ] 달 산책 cumulus 16.35 1:31:44 121 05:36 10.69 ir
11/01/19 VS 60' seismologs 9.49 55:03 131 15 05:48 10.34 ir
11/01/19 Dailas treniņā - iesild.atsild. 6x300m Gīča 3.37 17:27 116 05:10 11.59 ir
11/01/19 Skrējiens Raķete 17.10 1:23:10 161 04:51 12.34 ir
11/01/19 skrejceliņš Diddi 12.00 1:22:52 06:54 8.69 ir
11/01/19 Skrējiens, +3°, tāda slapja slidotava Alarion 5.96 1:00:08 136 10:05 5.95 ir
11/01/19 Berģi Sauļuks 12.04 1:19:51 141 06:37 9.05 ir
11/01/19 Trīs ciemi, nu jau pretēji Aktieris 7.02 41:03 05:50 10.26 ir
11/01/19 Mežā otto 9.49 53:58 145 05:41 10.55 ir
11/01/19 Vakara skrējiens Rupucis_ 8.58 52:11 164 06:04 9.87 ir
11/01/19 Dzegužkalns puuce 12.74 1:12:29 289 05:41 10.55 ir
11/01/19 uz darbu Rasels 10.80 1:06:35 06:09 9.73 ir
11/01/19 Patriks Rotfuss - Vēja VĀRDS Voldžiks 21.50 2:09:00 137 06:00 10.00 ir
11/01/19 Skrējiens Chuncha 10.00 58:29 05:50 10.26 ir
11/01/19 Piecgade ieskaitīta aKasIr 10.00 1:00:41 06:04 9.89 ir
11/01/19 treadmill running normundiņš 3.34 23:07 157 06:55 8.67 ir
11/01/19 sava prieka pēc... puteņo... -7'C Špicka 11.12 1:07:33 06:04 9.88 ir
11/01/19 Winter fun :) vetrasputns 6.00 44:29 146 07:24 8.09 ir
11/01/19 Lactate Freelancer 17.00 1:18:00 160 04:35 13.08 ir
11/01/19 9. - melnā Didzis 11.38 1:19:00 06:56 8.64 ir
11/01/19 Visur šķūrē sniegu. Hiēna 15.09 1:34:13 06:14 9.61 ir
11/01/19 -1* ar Čārliju Rozens 12.13 1:26:36 132 07:08 8.40 ir
11/01/19 s/c andris13 11.00 50:18 04:34 13.12 ir
11/01/19 Lietaina iesildīšanās gskunstins 2.00 12:49 06:24 9.36 ir
11/01/19 Rīts skai-tlot-ajs 5.95 40:02 06:43 8.92 ir
11/01/19 Treniņš Dainis 12.25 1:26:13 07:02 8.53 ir
11/01/19 Sniegputenis; kupenas; takas Jolis 30.01 2:44:13 05:28 10.96 ir
11/01/19 500m * 10 + iesildīšanās un atsildīšanās uldis15 14.40 1:09:48 04:50 12.38 ir
11/01/19 uz mājām (ar pilnu kuņģi) kaķis 6.16 36:18 146 21 05:53 10.18 ir
11/01/19 #6 mežs, putenis Jekaterina 8.16 1:02:53 148 56 07:42 7.79 ir
11/01/19 Skrējceliņš JA 8.00 46:25 05:48 10.34
11/01/19 5 km pa 4:30 ar Kārli edGars 11.00 59:19 05:23 11.13 ir
11/01/19 treadmill DServ 10.34 50:00 04:50 12.41 ir
11/01/19 Lloret de Mar - 17 noris 8.09 43:20 31 05:21 11.20 ir
11/01/19 Ar edGaru. Piecītis plānotajā maratona tempā (4:30 min/km) KarlisBumans 11.00 58:52 05:21 11.21 ir
11/01/19 13.00.Pa piesnigušo veloceliņu,uz ritmu MAKRO 8.00 40:37 133 05:04 11.82 ir
11/01/19 Pa sniegu, kupenām, vēju + vēl vēders mazliet sāp... DK86 10.03 59:20 144 05:54 10.14
11/01/19 aizputināts ceļš neirula 4.92 38:10 149 07:45 7.73 ir
11/01/19 Ceturtdienas mierīgais Ginc 12.00 1:20:43 12 06:43 8.92 ir
11/01/19 Vāveres ielūdz #3.15 chunka 6.80 41:40 06:07 9.79 ir
11/01/19 tipu tapu GintsK 8.80 52:25 05:57 10.07 ir
11/01/19 Skrējiens Rīga #1 KVerdens 8.01 54:35 161 4 06:48 8.80 ir
11/01/19 viena stunda svaiga gaisa B.trases apļos guncha 12.45 1:00:00 156 04:49 12.45 ir
11/01/19 #10.12.5.+ JurBer 10.03 1:03:20 140 06:18 9.50 ir
11/01/19 Imanta - Lidosta (DHL), ar trim fārtlekiem. Valdis.M 5.54 25:48 04:39 12.88 ir
11/01/19 8 km (-6°C; D 6 m/s) atisx 8.00 50:20 154 43 06:17 9.54 ir
11/01/19 Skrējiens johaidi 8.72 51:56 05:57 10.07 ir
11/01/19 piesnidzis zandarts 7.17 47:28 135 29 06:37 9.06 ir
11/01/19 V Trakais 10.00 45:50 04:35 13.09 ir
11/01/19 Skrējiens vitjka 5.16 30:12 05:51 10.25 ir
11/01/19 Skrējiens Ila_Kantī 0.36 04:00 11:06 5.40
11/01/19 Skrēijens lerychv 11.22 1:00:15 127 05:22 11.17 ir
11/01/19 rr7 lai izaicinājumā būtu 3. edGars 5.40 35:14 06:31 9.20 ir
11/01/19 rīta rosme stjopachio 5.02 25:51 122 05:08 11.65 ir
11/01/19 Okeāns un krāsainās peldmājas a-anna 8.00 49:22 06:10 9.72 ir
11/01/19 Vāveres ielūdz #3.15 SelfijuPavēlniece 10.10 1:03:29 159 06:17 9.55 ir
11/01/19 Izkustos MarksOzo 9.00 51:18 05:42 10.53 ir
11/01/19 rita pikols 15.14 1:56:21 119 17 07:41 7.81 ir
11/01/19 Te ir darbs! Raibacainais Ezītis 11.65 1:04:51 05:33 10.78 ir
11/01/19 uz darbu kaķis 6.10 36:40 141 25 06:00 9.98 ir
11/01/19 Running Aivysuperman 8.00 48:45 147 06:05 9.85 ir
11/01/19 plakanais Desperado 14.00 1:14:00 05:17 11.35 ir
11/01/19 skrējiens Gatis Krūze 10.00 55:46 05:34 10.76 ir
11/01/19 Līdz Ozolniekiem un atpakaļ noskrietsevi 12.30 1:11:00 05:46 10.39
11/01/19 Rīts ar Vāverēm Jānis_v 10.00 1:04:00 06:24 9.38 ir
11/01/19 Piespiedu sevi. (Pirmais no visiem! 06:03) Didzo 2.81 19:15 06:51 8.76 ir
10/01/19 Skrējiens uz darbu Helliza 8.06 54:46 06:47 8.83 ir
10/01/19 Atkal 3 tilti spaanietis 6.02 39:00 40 06:28 9.26 ir
10/01/19 mežš teicamnieks 6.00 ir
10/01/19 Pirms darba skrējiens James87 10.00 46:24 140 04:38 12.93 ir
10/01/19 Skrējiens mozgovoj ribak 9.84 43:15 04:23 13.65 ir
10/01/19 Pa veloceliņu spruuds 14.00 1:09:31 04:57 12.08 ir
10/01/19 Rīta skrējiens Krī 12.11 1:14:01 132 06:06 9.82 ir
10/01/19 Skrējiens Bubu 10.51 53:34 05:05 11.77 ir
10/01/19 Treninš Richa_K 8.73 48:04 131 05:30 10.90 ir
10/01/19 17:55 Dziņa 10.50 1:05:39 150 06:15 9.60 ir
10/01/19 Ceturtdiena Raitis 13.50 1:08:01 05:02 11.91 ir
10/01/19 1 Am0rgs 8.18 52:21 161 06:23 9.38 ir
10/01/19 Rita rosme azhons 1.60 08:45 05:28 10.97 ir
10/01/19 Skrējiens Māris 4.01 21:49 05:26 11.03
10/01/19 Skulte einmed 12.37 1:24:44 123 06:50 8.76 ir
10/01/19 asfalts kveks 11.00
10/01/19 Ogresgals. Johny 9.02 44:46 04:57 12.09
10/01/19 viegls fartleks 10x20sek.[40sek.] x 2 [10'] DS93 16.50 1:05:00 03:56 15.23
10/01/19 airport road BRR-30 runnerchick 18.00 1:41:27 123 05:38 10.65 ir
10/01/19 Skrējiens Andrejs V. 5.19 24:27 04:42 12.74 ir
10/01/19 Skrējiens MārcisB 7.06 43:30 06:09 9.74 ir
10/01/19 Skrējiens MārcisB 8.27 47:58 05:48 10.34 ir
10/01/19 Skrējiens Janis_O 4.07 20:56 05:08 11.67 ir
10/01/19 Randiņš ar pašvaku Lauski Jay-P 5.05 29:30 130 55 05:50 10.27 ir
10/01/19 19:45 Mežaparks GačusSkrunda 15.30 1:16:09 04:58 12.06
10/01/19 skrējiens suns 9.09 57:35 06:20 9.47 ir
10/01/19 I've been waiting for you to come around and tell me the truth Cukuriņš 19.51 1:31:46 04:42 12.76 ir
10/01/19 Go go dancisskrien 8.41 1:00:23 07:10 8.36
10/01/19 skrējiens manēžā Kalnu Dace 8.00 1:36:15 130 12:01 4.99 ir
10/01/19 Vakars ar Kasparu un trepēm OreMan 9.20 51:01 05:32 10.82 ir
10/01/19 Rīts ar Alīnu OreMan 3.00 16:03 05:21 11.21 ir
10/01/19 skrejiens runner-arrnis 6.00 30:15 140 44 05:02 11.90 ir
10/01/19 NW Hamburg zirnis 4.00
10/01/19 uz pastu vitaminka D 4.08 20:00 04:54 12.24
10/01/19 rīts pirms zobārsta eees 3.03 15:37 05:09 11.64 ir
10/01/19 93.0 Ønske 7.10 50:00 07:02 8.52 ir
10/01/19 devitnieks, max - 169 Aleks Kor 9.00 51:23 145 05:42 10.51 ir
10/01/19 Cēsu pilsēta - mazais aplis ArnisŠ 9.39 57:27 06:07 9.81
10/01/19 Skrejceļš drafts 10.66 1:04:19 163 06:02 9.94 ir
10/01/19 Lai aukstums nepanāk Ultralapsa 13.00 1:10:51 156 05:27 11.01 ir
10/01/19 Uz mežaparku bleedis 10.39 1:05:25 143 39 06:17 9.53 ir
10/01/19 V Trakais 8.24 37:23 04:32 13.23 ir
10/01/19 Vakara skrējiens JanisSkrien 11.00 1:07:03 137 06:05 9.84 ir
10/01/19 meh trololo 10.93 1:08:41 128 06:17 9.55 ir
10/01/19 Pa parku pēc pulsa Alice 6.27 45:00 145 07:10 8.36 ir
10/01/19 Popyfield aplis gintsp 9.34 58:23 06:15 9.60 ir
10/01/19 Vēl arvien gatavojos sisemaratonam Lielkuilis 6.01 30:58 05:09 11.64 ir
10/01/19 Skrējiens ruducis 10.87 1:00:00 05:31 10.87 ir
10/01/19 Skrējiens kmamedova 8.04 50:45 06:18 9.51
10/01/19 Skrējiens Jurgis_Klav 5.58 35:00 06:16 9.57
10/01/19 Pēc šances uz dīķi peldēties. Valdis.M 2.06 08:57 04:20 13.81 ir
10/01/19 Pēc peldēšanās uz mājām, 3 km toplesā. Valdis.M 6.48 29:39 04:34 13.11 ir
10/01/19 Skrējiens vaicis 10.50 1:09:58 06:39 9.00
10/01/19 Skrējiens uz trenažiera (15% kāpums) PeterisS 3.75 35:10 09:22 6.40
10/01/19 Skrējiens xorix 4.24 23:39 05:34 10.76 ir
10/01/19 Skrējiens Ila_Kantī 9.16 1:02:14 06:47 8.83
10/01/19 Skrējiens Natthe 12.00 1:15:10 133 06:15 9.58 ir
10/01/19 Skrējiens edžus11 8.18 51:30 06:17 9.53 ir
10/01/19 LRM 12.2. (040) MBirums 9.14 50:55 150 38 05:34 10.77 ir
10/01/19 Skrējiens Janxxx 5.48 31:01 05:39 10.60 ir
10/01/19 Skrējiens raraitis 16.02 1:10:01 04:22 13.73 ir
10/01/19 Skrējiens Mr.Linde 8.74 58:11 06:39 9.01 ir
10/01/19 Skrējiens Oscilis 6.01 41:29 06:54 8.69 ir
10/01/19 Skrējiens Elhana 3.64 26:11 07:11 8.34 ir
10/01/19 Skrējiens Casperr 6.71 33:29 04:59 12.02 ir
10/01/19 Skrējiens JERO 5.09 26:26 05:11 11.55
10/01/19 Skrējiens rmamedov 9.63 56:58 05:54 10.14 ir
10/01/19 Pa asfaltētu ielu Pičuks Dz 3.20 22:56 121 07:10 8.37
10/01/19 R maffija 6.20 35:53 05:47 10.37 ir
10/01/19 Vakara skrējiens ugis_v 10.00 53:45 127 05:22 11.16 ir
10/01/19 Vēls vakars Cassandra 9.56 55:58 05:51 10.25 ir
10/01/19 8.treniņš Daiguciitis 11.23 1:07:37 06:01 9.96 ir
10/01/19 4x2km@4:15 seismologs 15.47 1:16:49 146 13 04:57 12.08 ir
10/01/19 Skrējiens Prestons 6.55 45:01 144 27 06:52 8.73 ir
10/01/19 6. Brainārs 14.61 1:15:36 147 05:10 11.60 ir
10/01/19 Skrējiens Raķete 10.00 51:30 150 05:09 11.65 ir
10/01/19 Pa Jūrmalu Samiks 9.04 49:17 05:27 11.01
10/01/19 Mājup... Raibacainais Ezītis 11.32 1:02:02 05:28 10.95 ir
10/01/19 k js79 5.50 ir
10/01/19 skrējiens AigarsOKZK 10.50 1:01:15 05:50 10.29 ir
10/01/19 mierīgais no darba stjopachio 9.43 48:00 118 05:05 11.79 ir
10/01/19 Skrējiens Lauris 8.04 56:47 136 07:03 8.50 ir
10/01/19 lucavsala bredato 13.16 1:06:00 165 36 05:00 11.96 ir
10/01/19 Skrejiens VP13 13.70 1:05:21 04:46 12.58
10/01/19 Darbs - mājas, vingrinot plaukstas anciite 7.11 43:58 06:11 9.70 ir
10/01/19 Sālī un salā purene_vulgaris (parasta) 6.25 44:05 07:03 8.51 ir
10/01/19 40 min.lēnām. Uldzha 6.31 40:26 06:24 9.36 ir
10/01/19 Vakars Ginchaa 10.05 1:03:00 122 06:16 9.57
10/01/19 Neplānots skrējiens pēc darba Jolis 10.04 53:26 05:19 11.27
10/01/19 #50 SL1. Kalniņi Grīziņkalnā ar Aivaru. Auksti! +87m, - 9C, 18:47 antra 6.02 36:37 159 87 06:04 9.86 ir
10/01/19 Ceturtdienis _Edgars_ 10.65 59:28 05:35 10.75 ir
10/01/19 Treniņš Alvals 14.15 1:22:58 05:51 10.23 ir
10/01/19 no darba Rasels 11.60 1:03:20 132 05:27 10.99 ir
10/01/19 #9.12.4. JurBer 5.58 40:03 134 07:10 8.36 ir
10/01/19 Dobeles šoseja Ina 10.00 1:03:20 155 06:20 9.47 ir
10/01/19 S19.52 Alvis D 12.08 51:30 04:15 14.07 ir
10/01/19 viegls skrējiens pragma 5.00 33:00 150 06:36 9.09
10/01/19 . ush 8.01 40:54 132 37 05:06 11.75 ir
10/01/19 ar 6 pietiks ) Kahn 6.00 34:29 05:44 10.44 ir
10/01/19 Skrējiens lerychv 1.32 09:23 07:06 8.44
10/01/19 celins jurcha 10.04 57:46 05:45 10.43
10/01/19 Sniegainais Ilze1409 10.55
10/01/19 The last of us Alexander the Great 6.00 34:30 144 05:45 10.43 ir
10/01/19 shadowqueen 6.02 47:49 120 07:56 7.55 ir
10/01/19 Asfalts Dzo 18.00 1:25:09 04:43 12.68 ir
10/01/19 No darba ilZZuks 15.00 1:30:00 06:00 10.00 ir
10/01/19 Par tām asarām... krauklis 5.00 32:40 06:32 9.18
10/01/19 Skrejceliņš pirms spēka treniņa Špicka 2.00 11:00 05:30 10.91 ir
10/01/19 Vakara skrējiens. dainelis 8.00 42:38 150 05:19 11.26 ir
10/01/19 Ap Grīziņkalnu Kuks 6.50 37:00 135 05:41 10.54 ir
10/01/19 Drusciņ, drusciņ Heņča 3.10 19:05 06:09 9.75 ir
10/01/19 Skrējiens Chuncha 10.00 56:38 05:39 10.59 ir
10/01/19 Kupenīgais tumsas skrējiens. Gīča 11.00 1:04:30 139 05:51 10.23 ir
10/01/19 VS, 3x(500mĀ+500mL), VS, sniegs, -2.2C sola.scriptura 7.09 1:05:27 149 09:13 6.50 ir
10/01/19 17.00.lēnais MAKRO 16.00 1:21:22 132 05:05 11.80 ir
10/01/19 8. -8 Didzis 11.66 1:28:00 07:32 7.95 ir
10/01/19 turp atpakaļ neirula 7.02 52:30 148 07:28 8.02 ir
10/01/19 Ziema. Lēni un grūti. IlzeP 5.00 37:55 07:35 7.91 ir
10/01/19 uz mājām kaķis 6.16 35:32 145 40 05:46 10.40 ir
10/01/19 Plieņciems. Sasnidzis. RimantsL 12.00 1:14:25 06:12 9.68 ir
10/01/19 s/c andris13 10.38 45:00 04:20 13.84 ir
10/01/19 El.N.2 vavere 3.00 30:25 92 10:08 5.92
10/01/19 M.3. vavere 3.15 48:37 15:26 3.89
10/01/19 -8* pa mežu ar suni Rozens 12.70 1:36:21 120 07:35 7.91 ir
10/01/19 skrējceliņš, kalna imitācija Gatis Krūze 3.00 20:03 06:41 8.98
10/01/19 Ar ratiem nois 9.25 1:00:03 06:29 9.24 ir
10/01/19 Skrējiens edža 4.93 27:40 05:36 10.69 ir
10/01/19 Ceturtdienis bantiite 7.21 43:03 05:58 10.05 ir
10/01/19 Pirms pusdienām uldis15 18.00 1:32:17 05:07 11.70 ir
10/01/19 Rīts pilsētā englishteacher 12.00 1:09:35 05:47 10.35 ir
10/01/19 Pavisam ziemīgs skrējiens 6 no rīta Ginchaa 10.00 1:00:57 06:05 9.84
10/01/19 Skrējiens Dzintars 10.11 51:59 05:08 11.67 ir
10/01/19 Kokodas 1000 pakāpienu taka a-anna 0.74 11:55 16:06 3.73 ir
10/01/19 Lloret de Mar - 16 noris 14.52 1:09:46 331 04:48 12.49 ir
10/01/19 8 km (-9°C; D 3 m/s) atisx 8.00 51:18 149 26 06:24 9.36 ir
10/01/19 Dienas Skrējiens Swimrunner 11.21 1:09:18 152 32 06:10 9.71 ir
10/01/19 līdz koledžai-ar Edgaru garais pa M.parku-uz mājām savā tempā guncha 25.25 2:23:20 151 05:40 10.57 ir
10/01/19 Paskrējiens Ize_De 10.11 1:13:10 07:14 8.29 ir
10/01/19 Skrējiens. garaissss 10.45 1:03:21 149 06:03 9.90 ir
10/01/19 Uz darbu Guna 11.37 1:07:49 05:57 10.06 ir
10/01/19 I can't breathe, I can't be what you want me to be. Believe me this one time Cukuriņš 7.12 36:41 05:09 11.65 ir
10/01/19 Skrējiens lerychv 9.63 55:03 128 05:42 10.50
10/01/19 treadmill DServ 11.38 1:00:00 05:16 11.38 ir
10/01/19 Skrējiens -3 C pa sniegu InTi68 12.20 1:21:45 137 06:42 8.95 ir
10/01/19 Skrējiens oskarsdamb 8.06 47:19 05:52 10.22 ir
10/01/19 rr7 edGars 4.01 25:19 06:18 9.50 ir
10/01/19 Skrējiens Niklase 5.04 38:23 07:36 7.88 ir
10/01/19 Recovery Freelancer 10.70 1:03:49 133 47 05:57 10.06 ir
10/01/19 Imanta - Lidosta (DHL), ar trim fārtlekiem. Valdis.M 5.52 24:09 04:22 13.71 ir
10/01/19 Skrējiens zandarts 7.17 48:33 131 31 06:46 8.86 ir
10/01/19 Skrējiens johaidi 9.16 52:55 05:46 10.39 ir
10/01/19 Minirogainings, 2. kārta bro 10.95 1:08:44 06:16 9.56 ir
10/01/19 rita pikols 15.05 1:56:38 121 32 07:44 7.74 ir
10/01/19 Pēc nakts maiņas. dienas KM Voldžiks 17.00 1:37:00 136 05:42 10.52 ir
10/01/19 Labrīt, ceturtdienā! SelfijuPavēlniece 7.00 47:57 148 06:51 8.76 ir
10/01/19 Skrējiens superartuurs 6.00 37:00 06:10 9.73
10/01/19 uz darbu kaķis 6.16 38:11 153 35 06:11 9.68 ir
10/01/19 Rīts parastais Jānis_v 5.60 29:55 05:20 11.23 ir
10/01/19 Rīta Rosme Swimrunner 5.13 36:11 127 12 07:03 8.51 ir
10/01/19 Te ir darbs! Raibacainais Ezītis 11.55 1:03:22 05:29 10.94 ir
10/01/19 Domāju, kā būtu labāk. (Pirmais no visiem! 06:54) Didzo 10.21 1:02:55 06:09 9.74 ir